Time;durP1;ratioP1;P1;durP2;ratioP2;P2;SDS_P1;SDS_P2;PMS_P1;PMS_P2;Temp;Humidity;BMP_temperature;BMP_pressure;BME280_temperature;BME280_humidity;BME280_pressure;Samples;Min_cycle;Max_cycle;Signal;HPM_P1;HPM_P2
2022/08/12 00:45:05;;;;;;;5.23;3.13;;;20.20;1.00;;;;;;5052123;28;20972;-83
2022/08/12 00:47:38;;;;;;;3.37;3.07;;;20.20;1.00;;;;;;5046513;28;20413;-86
2022/08/12 00:50:06;;;;;;;3.47;3.17;;;20.10;1.00;;;;;;5048507;28;20473;-82
2022/08/12 00:52:39;;;;;;;3.93;3.13;;;20.10;1.00;;;;;;5048663;28;20500;-86
2022/08/12 00:55:06;;;;;;;5.53;3.43;;;20.00;1.00;;;;;;5049935;28;20448;-82
2022/08/12 00:57:46;;;;;;;4.03;3.47;;;20.00;1.00;;;;;;5048802;28;20493;-82
2022/08/12 01:00:20;;;;;;;3.90;3.50;;;20.00;1.00;;;;;;5052004;28;20413;-82
2022/08/12 01:02:50;;;;;;;6.93;3.63;;;19.90;1.00;;;;;;5047449;28;20477;-86
2022/08/12 01:13:44;;;;;;;4.00;3.10;;;19.80;1.00;;;;;;5069842;28;20440;-81
2022/08/12 01:16:12;;;;;;;7.10;3.77;;;19.70;1.00;;;;;;5064958;28;20987;-82
2022/08/12 01:18:40;;;;;;;4.40;3.47;;;19.70;1.00;;;;;;5067000;28;20471;-83
2022/08/12 01:21:15;;;;;;;5.00;3.00;;;19.70;1.00;;;;;;5068050;28;20448;-85
2022/08/12 01:24:20;;;;;;;5.20;4.50;;;19.70;1.00;;;;;;5048471;28;20443;-85
2022/08/12 01:26:51;;;;;;;6.20;3.67;;;19.70;1.00;;;;;;5047094;28;20409;-81
2022/08/12 01:29:28;;;;;;;5.83;4.03;;;19.60;1.00;;;;;;5050505;28;20459;-81
2022/08/12 01:32:10;;;;;;;6.57;4.07;;;19.60;1.00;;;;;;5056468;28;20455;-82
2022/08/12 01:34:40;;;;;;;4.13;3.37;;;19.60;1.00;;;;;;5069633;28;20987;-85
2022/08/12 01:37:09;;;;;;;5.57;3.60;;;19.60;1.00;;;;;;5066211;28;20457;-83
2022/08/12 01:39:47;;;;;;;5.73;3.73;;;19.60;1.00;;;;;;5068099;28;20455;-81
2022/08/12 01:42:21;;;;;;;3.90;3.10;;;19.50;1.00;;;;;;5067981;28;20416;-84
2022/08/12 01:44:50;;;;;;;5.07;4.10;;;19.50;1.00;;;;;;5064308;28;20651;-81
2022/08/12 01:47:38;;;;;;;4.77;3.40;;;19.50;1.00;;;;;;5063830;28;20420;-83
2022/08/12 01:50:17;;;;;;;4.30;3.90;;;19.40;1.00;;;;;;5068529;27;21306;-85
2022/08/12 01:52:57;;;;;;;4.33;3.77;;;19.40;1.00;;;;;;5069673;28;21024;-79
2022/08/12 01:55:27;;;;;;;5.00;4.43;;;19.40;1.00;;;;;;5067154;28;20464;-85
2022/08/12 01:58:18;;;;;;;6.30;4.43;;;19.30;1.00;;;;;;5041522;28;20457;-84
2022/08/12 02:00:59;;;;;;;4.70;4.00;;;19.30;1.00;;;;;;5048482;28;20539;-85
2022/08/12 02:12:59;;;;;;;4.30;3.70;;;19.20;1.00;;;;;;5056670;28;20457;-82
2022/08/12 02:15:41;;;;;;;4.27;3.70;;;19.10;1.00;;;;;;5045820;28;20473;-86
2022/08/12 02:18:24;;;;;;;4.40;3.53;;;19.10;1.00;;;;;;5073742;28;21121;-81
2022/08/12 02:21:04;;;;;;;5.73;3.43;;;19.10;1.00;;;;;;5070569;28;20449;-86
2022/08/12 02:23:37;;;;;;;4.57;3.93;;;19.10;1.00;;;;;;5070321;28;20505;-82
2022/08/12 02:26:07;;;;;;;4.87;3.90;;;19.10;1.00;;;;;;5072324;28;20451;-86
2022/08/12 02:28:41;;;;;;;4.53;3.73;;;19.10;1.00;;;;;;5072111;28;21275;-86
2022/08/12 02:31:10;;;;;;;4.53;3.90;;;19.10;1.00;;;;;;5068159;28;20448;-82
2022/08/12 02:33:40;;;;;;;8.87;4.30;;;19.00;1.00;;;;;;5073562;28;21231;-83
2022/08/12 02:36:07;;;;;;;5.60;4.50;;;19.00;1.00;;;;;;5075497;28;20570;-82
2022/08/12 02:38:41;;;;;;;5.30;4.30;;;19.00;1.00;;;;;;5075967;28;20562;-81
2022/08/12 02:41:15;;;;;;;7.13;4.23;;;18.90;1.00;;;;;;5072612;28;20868;-83
2022/08/12 02:43:50;;;;;;;4.83;4.10;;;18.90;1.00;;;;;;5077385;28;20471;-81
2022/08/12 02:46:26;;;;;;;4.27;3.87;;;18.90;1.00;;;;;;5071627;28;20419;-83
2022/08/12 02:49:05;;;;;;;9.60;5.80;;;18.90;1.00;;;;;;5053100;28;20448;-86
2022/08/12 02:51:39;;;;;;;8.63;4.60;;;18.90;1.00;;;;;;5054123;28;20468;-81
2022/08/12 02:54:07;;;;;;;5.40;4.20;;;18.90;1.00;;;;;;5054545;28;20464;-81
2022/08/12 02:56:40;;;;;;;8.37;4.63;;;18.90;1.00;;;;;;5051747;28;20480;-80
2022/08/12 02:59:09;;;;;;;4.73;4.00;;;18.90;1.00;;;;;;5055756;28;20472;-81
2022/08/12 03:01:45;;;;;;;5.47;3.90;;;18.80;1.00;;;;;;5055555;28;20531;-85
2022/08/12 03:04:23;;;;;;;7.90;5.00;;;18.80;1.00;;;;;;5052917;28;20548;-81
2022/08/12 03:07:00;;;;;;;4.10;3.70;;;18.80;1.00;;;;;;5068143;28;20460;-81
2022/08/12 03:09:38;;;;;;;7.63;5.47;;;18.70;1.00;;;;;;5054122;28;20468;-83
2022/08/12 03:12:06;;;;;;;7.07;3.80;;;18.70;1.00;;;;;;5052249;28;20929;-81
2022/08/12 03:14:41;;;;;;;5.47;3.80;;;18.70;1.00;;;;;;5050763;28;20433;-86
2022/08/12 03:17:17;;;;;;;4.13;3.40;;;18.60;1.00;;;;;;5057771;28;20497;-86
2022/08/12 03:19:44;;;;;;;6.03;4.60;;;18.60;1.00;;;;;;5049405;28;20501;-86
2022/08/12 03:22:13;;;;;;;5.87;4.30;;;18.60;1.00;;;;;;5047035;28;20448;-86
2022/08/12 03:24:43;;;;;;;4.60;4.17;;;18.60;1.00;;;;;;5051295;28;20465;-86
2022/08/12 03:27:19;;;;;;;5.47;4.50;;;18.60;1.00;;;;;;5050285;28;20559;-82
2022/08/12 03:29:46;;;;;;;5.87;4.27;;;18.60;1.00;;;;;;5048828;28;20794;-82
2022/08/12 03:32:18;;;;;;;6.00;4.87;;;18.60;1.00;;;;;;5053537;28;20488;-86
2022/08/12 03:34:49;;;;;;;7.43;4.40;;;18.50;1.00;;;;;;5051752;28;20431;-85
2022/08/12 03:37:21;;;;;;;6.60;4.67;;;18.50;1.00;;;;;;5083634;28;20464;-84
2022/08/12 03:39:48;;;;;;;6.20;4.30;;;18.40;1.00;;;;;;5054338;28;20441;-82
2022/08/12 03:42:37;;;;;;;10.07;6.63;;;18.40;1.00;;;;;;5056375;28;20483;-81
2022/08/12 04:01:57;;;;;;;13.13;5.40;;;18.30;1.00;;;;;;5064126;28;20471;-84
2022/08/12 04:04:27;;;;;;;16.23;9.90;;;18.20;1.00;;;;;;5062926;28;20444;-80
2022/08/12 04:06:58;;;;;;;6.80;5.30;;;18.20;1.00;;;;;;5066532;28;20442;-85
2022/08/12 04:09:26;;;;;;;11.73;5.30;;;18.30;1.00;;;;;;5069301;28;21273;-80
2022/08/12 04:14:39;;;;;;;5.73;4.67;;;18.20;1.00;;;;;;5069311;28;20534;-82
2022/08/12 04:17:07;;;;;;;8.40;4.67;;;18.30;1.00;;;;;;5061439;28;20898;-84
2022/08/12 04:19:38;;;;;;;5.10;4.40;;;18.30;1.00;;;;;;5065579;28;20472;-85
2022/08/12 04:22:05;;;;;;;6.97;4.87;;;18.30;1.00;;;;;;5067289;28;20562;-84
2022/08/12 04:24:35;;;;;;;6.90;5.30;;;18.30;1.00;;;;;;5067908;28;20443;-82
2022/08/12 04:27:03;;;;;;;15.33;5.03;;;18.30;1.00;;;;;;5069276;28;20456;-84
2022/08/12 04:29:30;;;;;;;7.50;4.40;;;18.30;1.00;;;;;;5067543;28;20460;-85
2022/08/12 04:31:58;;;;;;;8.53;5.83;;;18.30;1.00;;;;;;5069423;28;20495;-79
2022/08/12 04:34:25;;;;;;;50.23;10.00;;;18.30;1.00;;;;;;5067854;28;20471;-84
2022/08/12 04:36:58;;;;;;;11.23;5.03;;;18.30;1.00;;;;;;5070702;27;20513;-82
2022/08/12 04:39:26;;;;;;;9.70;4.80;;;18.40;1.00;;;;;;5063685;28;20853;-81
2022/08/12 04:41:59;;;;;;;8.43;4.03;;;18.40;1.00;;;;;;5065864;28;20478;-81
2022/08/12 04:44:27;;;;;;;14.83;5.30;;;18.40;1.00;;;;;;5066741;28;20435;-85
2022/08/12 04:46:58;;;;;;;5.77;4.57;;;18.40;1.00;;;;;;5071830;28;20460;-83
2022/08/12 04:49:26;;;;;;;26.57;7.53;;;18.50;1.00;;;;;;5069323;28;20466;-81
2022/08/12 04:52:04;;;;;;;8.87;4.90;;;18.50;1.00;;;;;;5072490;28;20551;-86
2022/08/12 04:54:36;;;;;;;6.60;5.20;;;18.50;1.00;;;;;;5068744;28;20459;-80
2022/08/12 04:57:04;;;;;;;7.17;5.00;;;18.60;1.00;;;;;;5068686;28;20456;-86
2022/08/12 04:59:32;;;;;;;11.03;4.70;;;18.60;1.00;;;;;;5066310;28;20434;-83
2022/08/12 05:02:00;;;;;;;28.10;11.40;;;18.60;1.00;;;;;;5063824;28;20443;-81
2022/08/12 05:04:29;;;;;;;14.17;6.33;;;18.70;1.00;;;;;;5077304;28;20459;-85
2022/08/12 05:06:58;;;;;;;9.00;5.13;;;18.80;1.00;;;;;;5069690;28;20480;-85
2022/08/12 05:09:27;;;;;;;7.73;4.47;;;18.80;1.00;;;;;;5070848;28;20447;-84
2022/08/12 05:12:04;;;;;;;5.67;4.80;;;18.90;1.00;;;;;;5065944;28;20511;-85
2022/08/12 05:14:33;;;;;;;5.37;4.10;;;18.90;1.00;;;;;;5067424;28;20502;-81
2022/08/12 05:17:08;;;;;;;7.60;4.80;;;19.00;1.00;;;;;;5065950;28;20562;-83
2022/08/12 05:19:37;;;;;;;4.87;3.87;;;19.00;1.00;;;;;;5072522;28;20511;-85
2022/08/12 05:22:05;;;;;;;7.90;4.63;;;19.10;1.00;;;;;;5065775;28;20567;-85
2022/08/12 05:24:35;;;;;;;6.67;4.93;;;19.10;1.00;;;;;;5068309;28;20429;-85
2022/08/12 05:27:03;;;;;;;7.10;4.30;;;19.20;1.00;;;;;;5068850;28;20544;-86
2022/08/12 05:29:30;;;;;;;5.93;3.93;;;19.30;1.00;;;;;;5073475;28;20542;-84
2022/08/12 05:32:01;;;;;;;5.70;4.40;;;19.40;1.00;;;;;;5069891;28;20484;-85
2022/08/12 05:34:29;;;;;;;5.40;4.27;;;19.50;1.00;;;;;;5070483;28;21006;-85
2022/08/12 05:36:58;;;;;;;9.63;4.57;;;19.60;1.00;;;;;;5068395;28;20415;-81
2022/08/12 05:39:27;;;;;;;7.00;4.80;;;19.70;1.00;;;;;;5068241;28;20487;-81
2022/08/12 05:41:58;;;;;;;9.40;4.20;;;19.80;1.00;;;;;;5067275;28;20462;-82
2022/08/12 05:44:25;;;;;;;8.90;4.57;;;19.90;1.00;;;;;;5071388;28;20420;-84
2022/08/12 05:46:57;;;;;;;8.83;4.57;;;20.00;1.00;;;;;;5064946;28;20436;-85
2022/08/12 05:49:24;;;;;;;9.60;4.67;;;20.10;1.00;;;;;;5067970;28;20894;-81
2022/08/12 05:51:51;;;;;;;27.43;5.87;;;20.20;1.00;;;;;;5072197;28;20459;-86
2022/08/12 05:54:19;;;;;;;10.77;8.70;;;20.30;1.00;;;;;;5076862;28;20499;-83
2022/08/12 05:56:47;;;;;;;5.73;4.60;;;20.40;1.00;;;;;;5074826;28;20435;-81
2022/08/12 05:59:20;;;;;;;5.77;4.20;;;20.50;1.00;;;;;;5071381;28;20480;-81
2022/08/12 06:01:47;;;;;;;10.87;4.53;;;20.60;1.00;;;;;;5076321;28;20478;-82
2022/08/12 06:04:19;;;;;;;10.03;6.13;;;20.70;1.00;;;;;;5073237;28;20440;-81
2022/08/12 06:06:50;;;;;;;5.73;3.90;;;20.80;1.00;;;;;;5078931;28;20470;-80
2022/08/12 06:09:18;;;;;;;5.30;4.03;;;20.90;1.00;;;;;;5071363;28;20431;-80
2022/08/12 06:11:47;;;;;;;6.97;4.50;;;21.00;1.00;;;;;;5072271;28;20472;-80
2022/08/12 06:14:18;;;;;;;7.70;4.00;;;21.00;1.00;;;;;;5072916;28;20420;-80
2022/08/12 06:16:45;;;;;;;8.80;4.90;;;21.10;1.00;;;;;;5070477;27;20427;-79
2022/08/12 06:19:14;;;;;;;6.60;4.20;;;21.20;1.00;;;;;;5069193;27;20912;-80
2022/08/12 06:21:42;;;;;;;10.20;4.50;;;21.30;1.00;;;;;;5061387;28;20510;-78
2022/08/12 06:24:12;;;;;;;3.93;3.57;;;21.40;1.00;;;;;;5067586;28;20456;-78
2022/08/12 06:26:40;;;;;;;6.60;4.80;;;21.60;1.00;;;;;;5066917;28;20565;-82
2022/08/12 06:29:23;;;;;;;4.77;4.30;;;21.70;1.00;;;;;;5073050;28;20527;-84
2022/08/12 06:31:51;;;;;;;5.13;3.90;;;21.80;1.00;;;;;;5070470;27;20463;-79
2022/08/12 06:34:19;;;;;;;4.83;3.53;;;21.90;1.00;;;;;;5069489;28;20491;-82
2022/08/12 06:36:46;;;;;;;5.20;3.57;;;22.00;1.00;;;;;;5071706;27;20541;-78
2022/08/12 06:39:24;;;;;;;9.27;3.67;;;22.20;1.00;;;;;;5075561;28;20487;-79
2022/08/12 06:44:39;;;;;;;10.00;3.30;;;22.40;1.00;;;;;;5071076;27;20429;-83
2022/08/12 06:47:06;;;;;;;6.60;5.93;;;22.60;1.00;;;;;;5073205;28;20451;-84
2022/08/12 06:49:37;;;;;;;4.90;4.13;;;22.70;1.00;;;;;;5069252;27;20558;-84
2022/08/12 06:52:07;;;;;;;4.77;3.20;;;22.80;1.00;;;;;;5072884;27;20882;-82
2022/08/12 06:54:41;;;;;;;6.80;3.40;;;22.90;1.00;;;;;;5068524;27;20462;-80
2022/08/12 06:57:08;;;;;;;3.43;3.13;;;23.10;1.00;;;;;;5068451;28;20483;-79
2022/08/12 06:59:40;;;;;;;4.90;3.40;;;23.20;1.00;;;;;;5069160;28;20546;-82
2022/08/12 07:02:08;;;;;;;5.73;3.40;;;23.30;1.00;;;;;;5069344;28;20443;-83
2022/08/12 07:04:39;;;;;;;5.37;2.77;;;23.30;1.00;;;;;;5082150;28;20414;-85
2022/08/12 07:07:09;;;;;;;7.37;3.07;;;23.40;1.00;;;;;;5071058;28;20483;-80
2022/08/12 07:09:41;;;;;;;5.13;3.13;;;23.40;1.00;;;;;;5068446;27;20431;-79
2022/08/12 07:12:12;;;;;;;6.47;3.13;;;23.60;1.00;;;;;;5064097;28;20463;-84
2022/08/12 07:14:43;;;;;;;3.30;2.87;;;23.70;1.00;;;;;;5073461;28;20456;-83
2022/08/12 07:17:11;;;;;;;4.90;3.10;;;23.80;1.00;;;;;;5074640;28;20455;-82
2022/08/12 07:19:42;;;;;;;4.63;4.00;;;23.90;1.00;;;;;;5071051;28;20417;-82
2022/08/12 07:22:09;;;;;;;6.30;3.00;;;24.10;1.00;;;;;;5070041;28;20634;-78
2022/08/12 07:25:29;;;;;;;5.13;3.30;;;24.20;1.00;;;;;;5073450;28;20429;-78
2022/08/12 07:27:41;;;;;;;4.03;3.13;;;24.40;1.00;;;;;;5070794;28;20896;-86
2022/08/12 07:30:11;;;;;;;6.50;2.50;;;24.40;1.00;;;;;;5068338;28;20537;-86
2022/08/12 07:32:39;;;;;;;3.70;2.20;;;24.50;1.00;;;;;;5077172;28;20428;-85
2022/08/12 07:35:07;;;;;;;3.27;2.97;;;24.60;1.00;;;;;;5070081;28;20456;-86
2022/08/12 07:37:40;;;;;;;6.50;2.77;;;24.80;1.00;;;;;;5071907;28;20610;-85
2022/08/12 07:40:10;;;;;;;3.67;2.27;;;24.90;1.00;;;;;;5070678;28;20471;-79
2022/08/12 07:42:39;;;;;;;3.60;2.90;;;24.90;1.00;;;;;;5061639;28;20468;-79
2022/08/12 07:45:08;;;;;;;3.00;2.40;;;24.90;1.00;;;;;;5065904;28;20581;-80
2022/08/12 07:47:42;;;;;;;3.50;2.83;;;25.00;1.00;;;;;;5060898;27;23158;-79
2022/08/12 07:50:09;;;;;;;3.50;2.40;;;25.10;1.00;;;;;;5063969;28;20467;-80
2022/08/12 07:52:45;;;;;;;4.63;3.27;;;25.30;1.00;;;;;;5068876;28;20523;-78
2022/08/12 07:55:18;;;;;;;4.03;2.60;;;25.40;1.00;;;;;;5075636;28;21017;-86
2022/08/12 07:57:58;;;;;;;3.10;2.57;;;25.60;1.00;;;;;;5064731;28;20432;-80
2022/08/12 08:00:26;;;;;;;3.93;2.80;;;25.80;1.00;;;;;;5065830;28;20459;-80
2022/08/12 08:02:59;;;;;;;3.60;2.13;;;26.00;1.00;;;;;;5062668;27;20551;-82
2022/08/12 08:05:30;;;;;;;10.27;4.13;;;26.10;1.00;;;;;;5072274;27;20670;-79
2022/08/12 08:08:29;;;;;;;6.07;2.53;;;26.40;1.00;;;;;;5068884;28;20610;-83
2022/08/12 08:13:48;;;;;;;5.63;2.37;;;26.70;1.00;;;;;;5013717;28;20436;-80
2022/08/12 08:16:23;;;;;;;7.53;2.57;;;26.80;1.00;;;;;;5070130;27;20459;-79
2022/08/12 08:18:52;;;;;;;4.70;2.40;;;26.90;1.00;;;;;;5058963;27;21659;-81
2022/08/12 08:21:20;;;;;;;2.67;1.60;;;26.80;1.00;;;;;;5065442;28;20502;-84
2022/08/12 08:26:32;;;;;;;9.77;3.10;;;26.80;1.00;;;;;;5068936;28;21232;-83
2022/08/12 08:28:59;;;;;;;4.50;3.60;;;26.90;1.00;;;;;;5068390;27;20489;-78
2022/08/12 08:31:26;;;;;;;2.57;1.90;;;27.00;1.00;;;;;;5066957;28;20499;-81
2022/08/12 08:34:00;;;;;;;4.13;2.10;;;27.10;1.00;;;;;;5062538;28;20860;-83
2022/08/12 08:36:26;;;;;;;4.20;1.87;;;27.30;1.00;;;;;;5065441;28;20476;-80
2022/08/12 08:38:57;;;;;;;1.70;1.57;;;27.30;1.00;;;;;;5065312;28;20488;-78
2022/08/12 08:44:10;;;;;;;2.50;1.67;;;27.40;1.00;;;;;;5067461;28;20443;-82
2022/08/12 08:46:39;;;;;;;6.00;3.10;;;27.40;1.00;;;;;;5078020;28;20459;-82
2022/08/12 08:49:31;;;;;;;2.63;1.50;;;27.60;1.00;;;;;;5074804;28;20442;-86
2022/08/12 08:52:01;;;;;;;3.97;1.60;;;27.70;1.00;;;;;;5066343;28;20468;-87
2022/08/12 08:54:32;;;;;;;7.70;2.27;;;27.60;1.00;;;;;;5052554;28;20465;-83
2022/08/12 08:57:01;;;;;;;1.60;1.50;;;27.60;1.00;;;;;;5064090;28;20484;-82
2022/08/12 09:03:02;;;;;;;3.10;1.80;;;27.80;1.00;;;;;;5006716;27;20439;-82
2022/08/12 09:06:00;;;;;;;4.87;1.77;;;27.80;1.00;;;;;;5051533;28;20425;-83
2022/08/12 09:08:30;;;;;;;7.30;3.20;;;28.00;1.00;;;;;;5060992;28;20906;-80
2022/08/12 09:13:48;;;;;;;4.13;2.30;;;28.40;1.00;;;;;;5042568;28;20455;-82
2022/08/12 09:16:17;;;;;;;3.00;1.70;;;28.50;1.00;;;;;;5068214;28;20448;-81
2022/08/12 09:18:44;;;;;;;1.90;1.50;;;28.50;1.00;;;;;;5048245;28;20475;-83
2022/08/12 09:21:18;;;;;;;2.60;2.20;;;28.60;1.00;;;;;;5047333;28;20479;-79
2022/08/12 09:23:44;;;;;;;4.27;2.03;;;28.70;1.00;;;;;;5047193;28;20429;-79
2022/08/12 09:26:14;;;;;;;6.40;2.83;;;28.80;1.00;;;;;;5049090;28;20481;-82
2022/08/12 09:28:49;;;;;;;3.17;1.97;;;28.90;1.00;;;;;;5046190;28;20480;-80
2022/08/12 09:31:21;;;;;;;2.33;2.13;;;29.00;1.00;;;;;;5053303;28;20420;-82
2022/08/12 09:33:49;;;;;;;7.10;2.33;;;29.20;1.00;;;;;;5062688;28;20459;-77
2022/08/12 09:36:23;;;;;;;2.13;1.93;;;29.40;1.00;;;;;;5070984;28;20535;-80
2022/08/12 09:39:01;;;;;;;4.13;3.50;;;29.80;1.00;;;;;;5069574;28;20853;-78
2022/08/12 09:41:28;;;;;;;9.13;4.57;;;30.40;1.00;;;;;;5067601;28;20496;-82
2022/08/12 09:46:51;;;;;;;4.07;2.47;;;32.60;1.00;;;;;;5071448;28;20472;-83
2022/08/12 09:49:21;;;;;;;6.73;2.53;;;32.60;1.00;;;;;;5064631;28;20484;-83
2022/08/12 09:51:49;;;;;;;2.80;1.77;;;33.20;1.00;;;;;;5064603;28;20454;-78
2022/08/12 09:54:19;;;;;;;2.53;1.50;;;34.70;1.00;;;;;;5064633;28;20440;-81
2022/08/12 09:56:46;;;;;;;2.90;2.10;;;35.60;1.00;;;;;;5066158;28;20468;-83
2022/08/12 09:59:21;;;;;;;2.30;1.83;;;36.40;1.00;;;;;;5070037;28;20547;-80
2022/08/12 10:01:50;;;;;;;8.77;2.73;;;37.00;1.00;;;;;;5061594;28;20428;-82
2022/08/12 10:04:31;;;;;;;2.90;1.97;;;36.40;1.00;;;;;;5067732;28;20456;-80
2022/08/12 10:07:04;;;;;;;3.50;1.63;;;36.40;1.00;;;;;;5064763;28;20554;-79
2022/08/12 10:09:31;;;;;;;3.93;1.83;;;37.00;1.00;;;;;;5068704;27;20459;-79
2022/08/12 10:15:02;;;;;;;2.80;1.40;;;38.00;1.00;;;;;;5068065;28;20453;-83
2022/08/12 10:17:29;;;;;;;2.20;2.00;;;38.40;1.00;;;;;;5066807;28;20995;-82
2022/08/12 10:19:58;;;;;;;3.10;1.40;;;38.80;1.00;;;;;;5067914;27;20419;-83
2022/08/12 10:22:30;;;;;;;4.10;1.60;;;39.10;1.00;;;;;;5059963;28;20452;-82
2022/08/12 10:31:20;;;;;;;3.50;1.73;;;39.40;1.00;;;;;;4974738;28;20463;-83
2022/08/12 10:34:00;;;;;;;2.90;2.07;;;39.50;1.00;;;;;;5002448;28;20434;-83
2022/08/12 10:36:30;;;;;;;5.10;2.70;;;39.90;1.00;;;;;;4980559;28;20491;-82
2022/08/12 10:38:59;;;;;;;4.60;1.20;;;40.60;1.00;;;;;;4996854;28;20975;-78
2022/08/12 10:44:14;;;;;;;4.13;2.27;;;40.90;1.00;;;;;;5060176;28;20443;-78
2022/08/12 10:46:44;;;;;;;4.33;2.43;;;40.40;1.00;;;;;;5076252;28;20467;-84
2022/08/12 10:49:13;;;;;;;3.63;1.73;;;40.90;1.00;;;;;;5068569;28;20476;-83
2022/08/12 10:51:40;;;;;;;3.73;1.70;;;41.00;1.00;;;;;;5075225;28;20460;-83
2022/08/12 10:54:10;;;;;;;4.43;2.13;;;41.20;1.00;;;;;;5064475;28;20432;-84
2022/08/12 10:56:50;;;;;;;4.00;1.90;;;40.60;1.00;;;;;;5042453;28;20473;-85
2022/08/12 10:59:20;;;;;;;2.43;1.90;;;40.90;1.00;;;;;;5070513;28;20462;-81
2022/08/12 11:02:02;;;;;;;2.77;1.63;;;41.00;1.00;;;;;;5030492;28;20459;-85
2022/08/12 11:04:30;;;;;;;1.83;1.20;;;41.00;1.00;;;;;;5050932;28;20546;-83
2022/08/12 11:07:00;;;;;;;4.60;2.00;;;39.70;1.00;;;;;;5051465;28;20432;-83
2022/08/12 11:09:30;;;;;;;4.30;2.23;;;38.90;1.00;;;;;;5051417;28;22430;-82
2022/08/12 11:12:05;;;;;;;5.07;2.13;;;39.40;1.00;;;;;;5075119;28;20431;-78
2022/08/12 11:14:55;;;;;;;3.10;1.60;;;39.50;1.00;;;;;;5056185;28;20556;-78
2022/08/12 11:17:34;;;;;;;2.30;2.10;;;39.00;1.00;;;;;;5072053;28;20479;-77
2022/08/12 11:20:01;;;;;;;1.70;1.60;;;39.90;1.00;;;;;;5075215;28;20499;-79
2022/08/12 11:25:11;;;;;;;3.73;1.93;;;41.20;1.00;;;;;;4978636;26;20913;-84
2022/08/12 11:27:43;;;;;;;4.93;2.23;;;41.20;1.00;;;;;;5030187;28;20473;-82
2022/08/12 11:30:11;;;;;;;2.80;1.70;;;39.60;1.00;;;;;;5025878;28;20471;-84
2022/08/12 11:32:39;;;;;;;1.83;1.40;;;37.60;1.00;;;;;;5050927;28;20428;-82
2022/08/12 11:35:08;;;;;;;3.97;1.50;;;36.80;1.00;;;;;;5048364;28;20465;-82
2022/08/12 11:37:40;;;;;;;13.03;5.23;;;37.30;1.00;;;;;;5054725;28;20431;-83
2022/08/12 11:40:07;;;;;;;2.83;1.53;;;39.40;1.00;;;;;;5053677;28;20431;-75
2022/08/12 11:42:52;;;;;;;2.20;1.80;;;41.00;1.00;;;;;;5053052;28;20426;-83
2022/08/12 11:45:20;;;;;;;4.17;2.20;;;42.10;1.00;;;;;;5055576;28;20429;-78
2022/08/12 11:47:50;;;;;;;2.87;1.53;;;42.70;1.00;;;;;;5053776;28;20431;-81
2022/08/12 11:50:20;;;;;;;1.77;1.13;;;42.60;1.00;;;;;;5056180;28;20437;-78
2022/08/12 11:52:47;;;;;;;1.67;1.57;;;42.90;1.00;;;;;;5060486;28;20477;-83
2022/08/12 11:55:23;;;;;;;3.67;1.83;;;43.40;1.00;;;;;;5053707;28;20460;-78
2022/08/12 11:57:54;;;;;;;2.87;1.70;;;42.60;1.00;;;;;;5051790;28;20451;-78
2022/08/12 12:00:41;;;;;;;10.47;2.30;;;40.30;1.00;;;;;;5038842;28;20469;-77
2022/08/12 12:03:08;;;;;;;3.23;1.53;;;38.20;1.00;;;;;;5051476;28;20422;-78
2022/08/12 12:05:46;;;;;;;4.97;2.40;;;37.30;1.00;;;;;;5035169;28;20546;-79
2022/08/12 12:08:31;;;;;;;6.10;2.63;;;38.50;1.00;;;;;;5060491;28;21410;-79
2022/08/12 12:11:10;;;;;;;3.57;1.73;;;39.40;1.00;;;;;;5034883;28;20413;-84
2022/08/12 12:16:42;;;;;;;2.93;1.40;;;40.70;1.00;;;;;;4960265;28;20448;-78
2022/08/12 12:19:09;;;;;;;2.03;1.93;;;41.90;1.00;;;;;;4958205;28;20560;-83
2022/08/12 12:21:40;;;;;;;1.73;1.50;;;41.10;1.00;;;;;;4959876;28;20451;-80
2022/08/12 12:24:07;;;;;;;3.23;1.50;;;39.20;1.00;;;;;;4956473;28;20484;-84
2022/08/12 12:26:42;;;;;;;2.90;1.70;;;39.50;1.00;;;;;;4962392;28;20464;-79
2022/08/12 12:29:09;;;;;;;4.80;2.10;;;40.90;1.00;;;;;;4961997;28;22162;-84
2022/08/12 12:31:39;;;;;;;3.00;1.90;;;41.70;1.00;;;;;;4959284;28;20483;-85
2022/08/12 12:34:05;;;;;;;3.93;2.63;;;42.20;1.00;;;;;;4953595;28;20468;-81
2022/08/12 12:36:32;;;;;;;4.20;2.10;;;42.00;1.00;;;;;;4959636;28;20556;-85
2022/08/12 12:39:00;;;;;;;2.00;1.77;;;40.50;1.00;;;;;;4963095;28;20425;-83
2022/08/12 12:41:27;;;;;;;5.13;3.80;;;38.80;1.00;;;;;;4956397;28;20491;-83
2022/08/12 12:43:59;;;;;;;5.53;2.70;;;38.80;1.00;;;;;;4960568;28;20482;-85
2022/08/12 12:46:26;;;;;;;2.73;1.67;;;39.90;1.00;;;;;;4958709;28;20508;-78
2022/08/12 12:48:59;;;;;;;3.20;1.60;;;41.30;1.00;;;;;;4951767;28;21068;-78
2022/08/12 12:51:26;;;;;;;5.10;1.67;;;41.90;1.00;;;;;;4955516;28;20481;-83
2022/08/12 12:53:57;;;;;;;5.80;2.00;;;40.10;1.00;;;;;;4957417;28;20560;-81
2022/08/12 12:56:25;;;;;;;3.70;1.70;;;37.60;1.00;;;;;;4958241;28;20469;-79
2022/08/12 12:59:02;;;;;;;1.50;1.40;;;36.10;1.00;;;;;;4952191;28;20471;-84
2022/08/12 13:01:29;;;;;;;2.97;2.27;;;35.00;1.00;;;;;;4956399;28;20629;-77
2022/08/12 13:04:00;;;;;;;3.40;1.90;;;33.90;1.00;;;;;;4954200;28;20490;-78
2022/08/12 13:06:28;;;;;;;2.50;2.00;;;33.40;1.00;;;;;;4961825;28;20595;-84
2022/08/12 13:09:01;;;;;;;3.93;1.93;;;32.90;1.00;;;;;;4960929;28;20421;-84
2022/08/12 13:11:28;;;;;;;2.27;1.60;;;34.30;1.00;;;;;;4964554;28;20887;-84
2022/08/12 13:14:05;;;;;;;4.17;2.00;;;37.20;1.00;;;;;;4963298;28;21249;-84
2022/08/12 13:16:32;;;;;;;4.10;1.70;;;39.80;1.00;;;;;;4955477;28;20530;-79
2022/08/12 13:19:01;;;;;;;2.60;2.37;;;40.40;1.00;;;;;;4957485;28;20431;-84
2022/08/12 13:21:29;;;;;;;2.53;1.90;;;41.00;1.00;;;;;;4960456;28;20444;-84
2022/08/12 13:24:04;;;;;;;1.83;1.73;;;39.10;1.00;;;;;;4961370;28;20520;-84
2022/08/12 13:26:33;;;;;;;2.10;2.00;;;37.60;1.00;;;;;;4961190;28;20465;-84
2022/08/12 13:29:03;;;;;;;3.40;1.93;;;36.60;1.00;;;;;;4964512;28;20468;-79
2022/08/12 13:31:30;;;;;;;5.70;3.23;;;35.00;1.00;;;;;;4957446;28;20477;-79
2022/08/12 13:34:03;;;;;;;2.07;1.87;;;33.90;1.00;;;;;;4957317;28;20447;-79
2022/08/12 13:36:30;;;;;;;2.37;2.00;;;33.10;1.00;;;;;;4964099;28;21229;-83
2022/08/12 13:39:00;;;;;;;4.43;2.30;;;32.30;1.00;;;;;;4965062;28;20475;-83
2022/08/12 13:41:33;;;;;;;7.57;3.93;;;31.90;1.00;;;;;;4965029;28;20541;-80
2022/08/12 13:44:06;;;;;;;3.70;2.03;;;31.60;1.00;;;;;;4959456;28;20433;-83
2022/08/12 13:49:22;;;;;;;5.77;3.20;;;31.40;1.00;;;;;;4963064;28;20457;-83
2022/08/12 13:51:52;;;;;;;3.27;2.20;;;31.50;1.00;;;;;;4960036;28;20484;-83
2022/08/12 13:54:20;;;;;;;2.40;1.80;;;32.40;1.00;;;;;;4970151;28;20468;-80
2022/08/12 13:56:47;;;;;;;3.57;1.97;;;33.50;1.00;;;;;;4964247;28;20972;-83
2022/08/12 13:59:22;;;;;;;4.00;2.13;;;35.50;1.00;;;;;;4968346;28;20464;-83
2022/08/12 14:01:53;;;;;;;4.20;1.87;;;37.60;1.00;;;;;;4964643;28;20464;-82
2022/08/12 14:04:22;;;;;;;3.27;1.70;;;39.10;1.00;;;;;;4948195;28;20433;-78
2022/08/12 14:06:50;;;;;;;3.33;1.90;;;40.40;1.00;;;;;;4961527;28;22315;-79
2022/08/12 14:09:20;;;;;;;2.33;1.70;;;41.00;1.00;;;;;;4961997;28;20502;-79
2022/08/12 14:11:47;;;;;;;1.80;1.70;;;41.30;1.00;;;;;;4958998;28;20517;-78
2022/08/12 14:14:19;;;;;;;3.03;1.90;;;42.10;1.00;;;;;;4955311;28;21942;-83
2022/08/12 14:16:45;;;;;;;1.70;1.60;;;42.60;1.00;;;;;;4940778;28;21015;-84
2022/08/12 14:19:13;;;;;;;1.40;1.30;;;42.20;1.00;;;;;;4924255;28;20552;-79
2022/08/12 14:21:48;;;;;;;3.60;2.50;;;41.30;1.00;;;;;;4928495;28;20445;-76
2022/08/12 14:24:35;;;;;;;2.40;2.20;;;40.40;1.00;;;;;;4940005;28;20466;-78
2022/08/12 14:27:03;;;;;;;2.37;2.17;;;40.50;1.00;;;;;;4933773;28;20466;-83
2022/08/12 14:29:43;;;;;;;;;;;;;;;;;;;;;
2022/08/12 14:32:12;;;;;;;2.83;1.90;;;42.50;1.00;;;;;;4941385;28;38993;-79
2022/08/12 14:34:42;;;;;;;6.37;5.83;;;42.40;1.00;;;;;;4939045;28;20430;-82
2022/08/12 14:37:15;;;;;;;2.40;1.90;;;42.20;1.00;;;;;;4947336;28;20495;-78
2022/08/12 14:39:45;;;;;;;3.33;2.00;;;42.20;1.00;;;;;;4927838;28;20658;-77
2022/08/12 14:42:13;;;;;;;2.60;1.70;;;40.70;1.00;;;;;;4945830;28;20973;-77
2022/08/12 14:44:40;;;;;;;2.20;1.70;;;38.30;1.00;;;;;;4939285;28;20450;-76
2022/08/12 14:47:10;;;;;;;6.37;2.50;;;36.90;1.00;;;;;;4944748;28;21321;-76
2022/08/12 14:49:44;;;;;;;2.37;2.17;;;35.50;1.00;;;;;;4940278;28;20454;-78
2022/08/12 14:52:13;;;;;;;2.53;2.17;;;34.60;1.00;;;;;;4945590;28;20572;-78
2022/08/12 14:54:42;;;;;;;3.07;2.77;;;33.80;1.00;;;;;;4929982;28;20519;-79
2022/08/12 14:57:10;;;;;;;3.13;1.93;;;33.10;1.00;;;;;;4923000;28;20465;-79
2022/08/12 15:02:30;;;;;;;3.63;2.73;;;33.10;1.00;;;;;;4948860;28;20474;-84
2022/08/12 15:05:03;;;;;;;3.73;1.97;;;35.30;1.00;;;;;;4940438;28;20961;-78
2022/08/12 15:07:36;;;;;;;4.83;2.80;;;37.60;1.00;;;;;;4940611;28;20469;-79
2022/08/12 15:10:04;;;;;;;2.83;2.20;;;39.10;1.00;;;;;;4945790;28;20556;-83
2022/08/12 15:12:32;;;;;;;2.40;2.20;;;39.40;1.00;;;;;;4944795;28;20489;-81
2022/08/12 15:15:01;;;;;;;4.17;2.00;;;38.70;1.00;;;;;;4941320;28;20458;-82
2022/08/12 15:17:29;;;;;;;2.90;1.90;;;39.10;1.00;;;;;;4946900;28;20952;-78
2022/08/12 15:20:01;;;;;;;3.13;2.50;;;39.40;1.00;;;;;;4944414;28;20436;-78
2022/08/12 15:22:27;;;;;;;4.53;2.50;;;40.40;1.00;;;;;;4941154;28;20454;-79
2022/08/12 15:25:00;;;;;;;2.57;2.30;;;40.40;1.00;;;;;;4941264;28;20457;-78